This is the latest recevied weather packets stored in our database for station/object IZ3ZOD-13. If no packets are shown the sender has not sent any weather packets the latest 10 day(s).
| Time | Temp. | Humidity | Pressure | Rain* | Wind** | Luminosity | Snow |
|---|---|---|---|---|---|---|---|
| 1777212244 | 25.56° C | 44% | 1016.8 hPa | 0 mm | - | - | - |
| 1777210323 | 25.56° C | 43% | 1017.2 hPa | 0 mm | - | - | - |
| 1777210083 | 25.56° C | 43% | 1016.9 hPa | 0 mm | - | - | - |
| 1777208404 | 26.11° C | 43% | 1017.3 hPa | 0 mm | - | - | - |
| 1777208294 | 26.67° C | 41% | 1017.2 hPa | 0 mm | - | - | - |
| 1777206963 | 25° C | 44% | 1017.4 hPa | 0 mm | - | - | - |
| 1777206723 | 25° C | 44% | 1017.5 hPa | 0 mm | - | - | - |
| 1777206483 | 25° C | 43% | 1017.5 hPa | 0 mm | - | - | - |
| 1777196644 | 22.78° C | 47% | 1017.9 hPa | 0 mm | - | - | - |
| 1777193284 | 21.11° C | 56% | 1018 hPa | 0 mm | - | - | - |
| 1777192803 | 21.67° C | 55% | 1017.9 hPa | 0 mm | - | - | - |
| 1777192563 | 21.11° C | 55% | 1017.8 hPa | 0 mm | - | - | - |
| 1777192323 | 21.11° C | 56% | 1017.9 hPa | 0 mm | - | - | - |
| 1777191123 | 20° C | 61% | 1017.6 hPa | 0 mm | - | - | - |
| 1777190643 | 20.56° C | 63% | 1017.6 hPa | 0 mm | - | - | - |
| 1777186563 | 17.22° C | 72% | 1017.4 hPa | 0 mm | - | - | - |
| 1777186217 | 17.22° C | 72% | 1017.4 hPa | 0 mm | - | - | - |
| 1777185976 | 16.67° C | 73% | 1017.3 hPa | 0 mm | - | - | - |
| 1777185364 | 16.67° C | 73% | 1017 hPa | 0 mm | - | - | - |
| 1777182963 | 15° C | 76% | 1016.6 hPa | 0 mm | - | - | - |
| 1777182244 | 14.44° C | 78% | 1016.4 hPa | 0 mm | - | - | - |
| 1777181763 | 14.44° C | 80% | 1016.6 hPa | 0 mm | - | - | - |
| 1777181523 | 13.89° C | 81% | 1016.3 hPa | 0 mm | - | - | - |
| 1777179364 | 11.67° C | 93% | 1015.7 hPa | 0 mm | - | - | - |
| 1777178403 | 11.11° C | 93% | 1015.5 hPa | 0 mm | - | - | - |
* Rain latest hour (hover to see other rain measurements)
** Current wind speed in m/s (hover to see current wind gust speed)